Skiros, Greece
Current Conditions -  °F | °C
As of 8:50 PM on Friday 21 Nov 2014 (Local Time) from LGSY Reporting Station
Scattered Clouds Scattered Clouds  
Wind Chill: 13°   Ceiling: Unl
Heat Index: 13°   Visibility: 6mi
Dew Point:   Wind: 7mph
Humidity: 54%   Direction: 350°N
Pressure: 30.06"   Gusts: NA
Location:  38.9°N, 24.56°E
Report Text: LGSY 211750Z 35006KT 9999 SCT030 13/04 Q1018 NOSIG BLU
Loading
Personal Weather Stations






























Interactive Weather Map New forecast layout! Learn more

10-Day Weather Forecast

Advertisements
Track Severe Weather on mobile